KTOI/TOI METAR and TAF weather

Enter ICAO airport designator
Station Type Date Time Source
KTOI METAR 2020/10/22 02:53 UTC NOAA

KTOI 220253Z AUTO 01003KT 10SM CLR 22/21 A3012 RMK AO2 SLPNO T02220206 50001 $


Station Type Date Time Source
KTOI Decoded METAR 2020/10/22 02:53 UTC NOAA

TROY MUNICIPAL AIRPORT, AL, United States (KTOI) 31-52N 086-01W 118M
Oct 21, 2020 - 10:53 PM EDT / 2020.10.22 0253 UTC
Wind: from the N (010 degrees) at 3 MPH (3 KT):0
Visibility: 10 mile(s):0
Sky conditions: clear
Temperature: 72.0 F (22.2 C)
Dew Point: 69.1 F (20.6 C)
Relative Humidity: 90%
Pressure (altimeter): 30.12 in. Hg (1019 hPa)
Pressure tendency: 0.00 inches (0.1 hPa) higher than three hours ago
ob: KTOI 220253Z AUTO 01003KT 10SM CLR 22/21 A3012 RMK AO2 SLPNO T02220206 50001
cycle: 3

Station Type Date Time Source
KTOI TAF 2020/10/21 22:30 UTC NOAA

TAF
AMD KTOI 212229Z 2122/2218 07005KT P6SM VCSH SCT040 BKN080
FM220100 VRB04KT P6SM FEW040 SCT080
FM221100 VRB03KT 6SM BR BKN008
FM221500 09006KT P6SM BKN015
FM221700 09007KT P6SM BKN045

Example: see airport list